Blountstown, Florida
Current Conditions -  °F | °C
As of 2:05 AM on Monday 24 Nov 2014 (Local Time) from KMAI Reporting Station
Overcast Overcast  
Wind Chill: 18°   Ceiling: 2900
Heat Index: 18°   Visibility: 10mi
Dew Point: 18°   Wind: 6mph
Humidity: 100%   Direction: 170°S
Pressure: 29.79"   Gusts: NA
Location:  30.44°N, 85.05°W
Report Text: KMAI 240805Z AUTO 17005KT 10SM FEW006 BKN029 OVC060 18/18 A2979 RMK AO2 T01830183 $
Loading
Personal Weather Stations






























Interactive Weather Map New forecast layout! Learn more

10-Day Weather Forecast

Advertisements
Track Severe Weather on mobile